createdAt,value
2023-01-19T00:00:27.441Z,53.03
2023-01-19T00:03:02.483Z,52.65
2023-01-19T00:05:31.275Z,56.33
2023-01-19T00:08:00.027Z,47.50
2023-01-19T00:10:34.413Z,48.70
2023-01-19T00:13:02.502Z,54.33
2023-01-19T00:15:36.397Z,47.40
2023-01-19T00:18:03.612Z,48.33
2023-01-19T00:20:37.423Z,51.67
2023-01-19T00:23:05.590Z,49.00
2023-01-19T00:25:39.393Z,51.28
2023-01-19T00:28:06.613Z,51.42
2023-01-19T00:30:40.409Z,53.03
2023-01-19T00:33:14.181Z,56.90
2023-01-19T00:35:42.415Z,58.92
2023-01-19T00:38:17.403Z,63.40
2023-01-19T00:40:44.367Z,59.05
2023-01-19T00:43:18.250Z,59.00
2023-01-19T00:45:46.328Z,59.55
2023-01-19T00:48:22.724Z,55.13
2023-01-19T00:50:50.358Z,62.75
2023-01-19T00:53:17.851Z,52.83
2023-01-19T00:55:52.188Z,60.05
2023-01-19T00:58:27.088Z,56.78
2023-01-19T01:00:55.253Z,46.13
2023-01-19T01:03:29.487Z,56.35
2023-01-19T01:05:56.409Z,55.70
2023-01-19T01:08:37.427Z,54.83
2023-01-19T01:11:04.627Z,56.50
2023-01-19T01:13:38.424Z,61.35
2023-01-19T01:16:06.987Z,61.03
2023-01-19T01:18:40.440Z,57.20
2023-01-19T01:21:07.803Z,50.88
2023-01-19T01:23:41.924Z,50.25
2023-01-19T01:26:08.837Z,51.72
2023-01-19T01:28:42.504Z,57.70
2023-01-19T01:31:15.602Z,53.35
2023-01-19T01:33:42.541Z,50.47
2023-01-19T01:36:17.446Z,48.42
2023-01-19T01:38:44.657Z,53.13
2023-01-19T01:41:19.418Z,44.05
2023-01-19T01:43:51.275Z,46.30
2023-01-19T01:46:18.359Z,49.17
2023-01-19T01:49:04.427Z,44.83
2023-01-19T01:51:51.344Z,48.05
2023-01-19T01:54:32.506Z,48.67
2023-01-19T01:57:04.527Z,48.60
2023-01-19T01:59:41.430Z,53.28
2023-01-19T02:02:15.715Z,50.38
2023-01-19T02:04:59.425Z,45.97
2023-01-19T02:07:59.942Z,45.90
2023-01-19T02:10:33.500Z,47.72
2023-01-19T02:13:00.871Z,49.38
2023-01-19T02:15:27.972Z,48.38
2023-01-19T02:18:01.432Z,47.35
2023-01-19T02:20:28.462Z,46.08
2023-01-19T02:22:55.773Z,38.15
2023-01-19T02:25:29.496Z,44.25
2023-01-19T02:28:02.504Z,39.58
2023-01-19T02:30:29.523Z,40.95
2023-01-19T02:32:56.512Z,40.13
2023-01-19T02:35:29.465Z,42.05
2023-01-19T02:37:56.449Z,37.03
2023-01-19T02:40:29.450Z,34.65
2023-01-19T02:42:58.534Z,35.60
2023-01-19T02:45:32.568Z,37.97
2023-01-19T02:47:59.503Z,33.88
2023-01-19T02:50:50.500Z,32.50
2023-01-19T02:54:00.475Z,33.92
2023-01-19T02:56:54.765Z,31.02
2023-01-19T02:59:49.510Z,33.38
2023-01-19T03:02:59.829Z,30.75
2023-01-19T03:06:08.559Z,33.15
2023-01-19T03:08:47.876Z,31.10
2023-01-19T03:11:21.479Z,27.73
2023-01-19T03:13:54.636Z,30.13
2023-01-19T03:16:48.655Z,31.17
2023-01-19T03:19:39.499Z,30.42
2023-01-19T03:22:12.969Z,30.02
2023-01-19T03:24:49.473Z,30.05
2023-01-19T03:27:40.739Z,32.47
2023-01-19T03:30:23.493Z,28.17
2023-01-19T03:32:57.135Z,30.27
2023-01-19T03:35:31.528Z,26.75
2023-01-19T03:37:58.414Z,29.15
2023-01-19T03:40:34.503Z,27.98
2023-01-19T03:43:01.857Z,31.65
2023-01-19T03:45:35.519Z,29.60
2023-01-19T03:48:02.411Z,29.48
2023-01-19T03:50:37.636Z,29.75
2023-01-19T03:53:18.938Z,29.85
2023-01-19T03:55:47.253Z,24.50
2023-01-19T03:58:21.540Z,27.67
2023-01-19T04:00:48.489Z,29.27
2023-01-19T04:03:23.519Z,24.75
2023-01-19T04:05:56.495Z,23.88
2023-01-19T04:08:29.528Z,23.83
2023-01-19T04:10:58.327Z,27.02
2023-01-19T04:13:25.287Z,24.70
2023-01-19T04:15:58.522Z,27.60
2023-01-19T04:18:25.586Z,26.23
2023-01-19T04:20:58.487Z,25.70
2023-01-19T04:23:25.365Z,29.08
2023-01-19T04:26:13.548Z,29.63
2023-01-19T04:28:40.460Z,25.60
2023-01-19T04:31:07.579Z,25.58
2023-01-19T04:33:41.517Z,27.08
2023-01-19T04:36:08.608Z,26.88
2023-01-19T04:38:42.480Z,30.17
2023-01-19T04:41:15.532Z,26.52
2023-01-19T04:43:42.397Z,26.95
2023-01-19T04:46:09.334Z,30.20
2023-01-19T04:48:42.532Z,24.92
2023-01-19T04:51:15.531Z,26.20
2023-01-19T04:53:42.619Z,26.40
2023-01-19T04:56:16.514Z,31.08
2023-01-19T04:58:49.533Z,33.63
2023-01-19T05:01:16.508Z,33.28
2023-01-19T05:03:50.546Z,25.42
2023-01-19T05:06:23.510Z,30.45
2023-01-19T05:08:50.438Z,28.98
2023-01-19T05:11:17.392Z,29.02
2023-01-19T05:13:51.551Z,33.50
2023-01-19T05:16:24.555Z,31.48
2023-01-19T05:18:51.516Z,32.60
2023-01-19T05:21:18.556Z,27.83
2023-01-19T05:23:51.542Z,28.73
2023-01-19T05:26:24.533Z,28.92
2023-01-19T05:28:51.494Z,27.35
2023-01-19T05:31:24.606Z,25.40
2023-01-19T05:33:51.629Z,26.48
2023-01-19T05:36:25.558Z,26.65
2023-01-19T05:38:58.588Z,27.60
2023-01-19T05:41:25.505Z,26.08
2023-01-19T05:43:52.400Z,27.70
2023-01-19T05:46:25.588Z,30.67
2023-01-19T05:48:52.483Z,33.42
2023-01-19T05:51:19.500Z,29.60
2023-01-19T05:53:52.563Z,33.75
2023-01-19T05:56:19.486Z,31.75
2023-01-19T05:58:52.592Z,32.42
2023-01-19T06:01:19.519Z,28.60
2023-01-19T06:03:53.571Z,30.60
2023-01-19T06:06:20.542Z,35.95
2023-01-19T06:08:53.557Z,43.40
2023-01-19T06:11:20.577Z,37.10
2023-01-19T06:13:53.610Z,34.67
2023-01-19T06:16:20.601Z,31.42
2023-01-19T06:18:54.550Z,30.85
2023-01-19T06:21:21.453Z,35.75
2023-01-19T06:23:48.409Z,32.22
2023-01-19T06:26:21.647Z,34.20
2023-01-19T06:28:48.645Z,33.40
2023-01-19T06:31:22.744Z,42.63
2023-01-19T06:33:49.733Z,35.67
2023-01-19T06:36:16.642Z,34.90
2023-01-19T06:38:49.559Z,33.53
2023-01-19T06:41:16.480Z,31.98
2023-01-19T06:43:49.585Z,52.20
2023-01-19T06:46:23.326Z,42.25
2023-01-19T06:48:56.565Z,38.20
2023-01-19T06:51:23.879Z,32.22
2023-01-19T06:53:50.806Z,35.80
2023-01-19T06:56:24.582Z,45.42
2023-01-19T06:58:51.646Z,42.78
2023-01-19T07:01:25.685Z,36.15
2023-01-19T07:03:52.756Z,34.95
2023-01-19T07:06:26.625Z,35.20
2023-01-19T07:09:00.599Z,33.28
2023-01-19T07:11:34.637Z,40.83
2023-01-19T07:14:08.657Z,42.35
2023-01-19T07:16:42.664Z,50.38
2023-01-19T07:19:13.478Z,47.42
2023-01-19T07:21:57.912Z,54.53
2023-01-19T07:25:04.503Z,48.95
2023-01-19T07:27:47.336Z,56.00
2023-01-19T07:30:14.990Z,54.35
2023-01-19T07:32:49.656Z,59.70
2023-01-19T07:35:19.790Z,54.13
2023-01-19T07:37:55.906Z,54.80
2023-01-19T07:40:24.059Z,62.75
2023-01-19T07:43:02.255Z,73.97
2023-01-19T07:45:51.471Z,61.28
2023-01-19T07:48:24.881Z,55.03
2023-01-19T07:50:56.113Z,64.22
2023-01-19T07:53:23.190Z,65.50
2023-01-19T07:56:01.695Z,70.13
2023-01-19T07:58:28.855Z,71.40
2023-01-19T08:01:02.739Z,66.15
2023-01-19T08:03:29.946Z,64.18
2023-01-19T08:06:03.687Z,69.20
2023-01-19T08:08:34.237Z,66.95
2023-01-19T08:11:07.665Z,59.55
2023-01-19T08:13:34.604Z,51.20
2023-01-19T08:16:01.655Z,39.47
2023-01-19T08:18:35.636Z,44.28
2023-01-19T08:21:02.729Z,44.25
2023-01-19T08:23:29.861Z,38.95
2023-01-19T08:26:03.690Z,37.08
2023-01-19T08:28:30.732Z,36.58
2023-01-19T08:31:18.681Z,40.60
2023-01-19T08:33:47.320Z,35.08
2023-01-19T08:36:20.740Z,32.80
2023-01-19T08:38:54.656Z,34.80
2023-01-19T08:41:21.954Z,39.72
2023-01-19T08:43:51.536Z,41.22
2023-01-19T08:46:25.740Z,40.50
2023-01-19T08:48:52.858Z,47.03
2023-01-19T08:51:26.698Z,50.50
2023-01-19T08:53:53.624Z,47.92
2023-01-19T08:56:27.654Z,45.55
2023-01-19T08:59:08.115Z,45.55
2023-01-19T09:01:42.723Z,40.03
2023-01-19T09:04:09.731Z,38.15
2023-01-19T09:06:36.736Z,38.70
2023-01-19T09:09:10.650Z,36.05
2023-01-19T09:11:37.692Z,34.53
2023-01-19T09:14:10.623Z,33.45
2023-01-19T09:16:37.658Z,36.50
2023-01-19T09:19:10.714Z,33.65
2023-01-19T09:21:37.766Z,36.30
2023-01-19T09:24:11.704Z,38.10
2023-01-19T09:26:44.665Z,39.78
2023-01-19T09:29:17.733Z,40.22
2023-01-19T09:31:51.723Z,40.40
2023-01-19T09:34:18.645Z,38.72
2023-01-19T09:36:47.047Z,39.22
2023-01-19T09:39:20.611Z,35.67
2023-01-19T09:41:51.504Z,39.25
2023-01-19T09:44:38.628Z,40.45
2023-01-19T09:47:17.493Z,36.70
2023-01-19T09:49:53.639Z,44.20
2023-01-19T09:52:20.537Z,40.60
2023-01-19T09:55:03.663Z,35.65
2023-01-19T09:57:30.646Z,41.17
2023-01-19T09:59:57.632Z,32.30
2023-01-19T10:03:04.021Z,33.95
2023-01-19T10:05:49.709Z,35.90
2023-01-19T10:08:16.669Z,34.30
2023-01-19T10:10:54.731Z,34.55
2023-01-19T10:13:48.922Z,32.42
2023-01-19T10:16:57.720Z,32.95
2023-01-19T10:19:46.360Z,24.60
2023-01-19T10:22:39.672Z,27.85
2023-01-19T10:25:15.866Z,25.67
2023-01-19T10:27:49.657Z,29.35
2023-01-19T10:30:31.653Z,26.92
2023-01-19T10:32:59.206Z,30.02
2023-01-19T10:35:32.704Z,30.40
2023-01-19T10:38:01.126Z,29.95
2023-01-19T10:40:52.762Z,23.95
2023-01-19T10:43:35.816Z,26.50
2023-01-19T10:46:13.683Z,29.83
2023-01-19T10:48:40.898Z,39.45
2023-01-19T10:51:15.685Z,31.60
2023-01-19T10:54:05.743Z,25.73
2023-01-19T10:56:36.428Z,25.17
2023-01-19T10:59:12.709Z,30.88
2023-01-19T11:01:39.784Z,27.65
2023-01-19T11:04:28.742Z,25.35
2023-01-19T11:07:43.894Z,26.15
2023-01-19T11:10:23.722Z,30.88
2023-01-19T11:13:12.128Z,31.40
2023-01-19T11:15:57.766Z,32.42
2023-01-19T11:18:33.818Z,29.60
2023-01-19T11:21:19.715Z,29.70
2023-01-19T11:23:51.248Z,34.42
2023-01-19T11:26:55.756Z,28.17
2023-01-19T11:29:26.470Z,27.42
2023-01-19T11:32:00.722Z,22.80
2023-01-19T11:34:33.474Z,22.33
2023-01-19T11:37:29.691Z,19.20
2023-01-19T11:39:58.977Z,21.08
2023-01-19T11:42:32.809Z,21.27
2023-01-19T11:45:10.447Z,20.45
2023-01-19T11:47:55.725Z,20.13
2023-01-19T11:50:39.167Z,17.88
2023-01-19T11:53:30.821Z,15.07
2023-01-19T11:56:08.801Z,13.80
2023-01-19T11:58:49.923Z,16.02
2023-01-19T12:01:40.676Z,15.63
2023-01-19T12:04:09.123Z,15.43
2023-01-19T12:06:45.770Z,19.40
2023-01-19T12:09:28.698Z,19.40
2023-01-19T12:12:40.735Z,23.05
2023-01-19T12:15:34.910Z,23.17
2023-01-19T12:18:08.680Z,21.45
2023-01-19T12:20:42.147Z,22.92
2023-01-19T12:23:18.767Z,25.05
2023-01-19T12:26:24.306Z,22.33
2023-01-19T12:28:58.723Z,23.48
2023-01-19T12:31:25.750Z,23.95
2023-01-19T12:34:02.032Z,19.50
2023-01-19T12:36:32.199Z,18.20
2023-01-19T12:39:18.730Z,16.40
2023-01-19T12:41:45.932Z,16.88
2023-01-19T12:44:19.762Z,16.30
2023-01-19T12:47:24.779Z,15.73
2023-01-19T12:50:02.743Z,19.02
2023-01-19T12:52:53.791Z,14.45
2023-01-19T12:55:24.821Z,16.23
2023-01-19T12:58:28.762Z,15.80
2023-01-19T13:01:24.823Z,11.52
2023-01-19T13:04:05.470Z,9.18
2023-01-19T13:06:54.709Z,11.70
2023-01-19T13:09:41.765Z,11.98
2023-01-19T13:12:14.940Z,8.98
2023-01-19T13:14:49.739Z,10.18
2023-01-19T13:17:59.754Z,9.00
2023-01-19T13:20:31.653Z,11.68
2023-01-19T13:23:26.816Z,10.23
2023-01-19T13:26:05.341Z,13.23
2023-01-19T13:28:48.690Z,13.70
2023-01-19T13:31:15.866Z,14.40
2023-01-19T13:33:57.717Z,12.13
2023-01-19T13:36:30.707Z,16.80
2023-01-19T13:39:06.783Z,12.27
2023-01-19T13:41:41.833Z,10.88
2023-01-19T13:44:41.736Z,11.52
2023-01-19T13:47:16.725Z,11.25
2023-01-19T13:49:50.017Z,9.88
2023-01-19T13:52:22.547Z,9.18
2023-01-19T13:55:03.783Z,10.50
2023-01-19T13:57:39.625Z,8.27
2023-01-19T14:00:18.812Z,11.10
2023-01-19T14:03:02.465Z,12.00
2023-01-19T14:05:40.889Z,11.07
2023-01-19T14:08:10.827Z,13.07
2023-01-19T14:11:07.791Z,12.15
2023-01-19T14:13:36.088Z,8.95
2023-01-19T14:16:21.799Z,11.73
2023-01-19T14:19:01.202Z,9.90
2023-01-19T14:21:45.777Z,13.05
2023-01-19T14:24:19.571Z,11.00
2023-01-19T14:26:54.847Z,11.48
2023-01-19T14:29:38.812Z,10.27
2023-01-19T14:32:30.731Z,10.05
2023-01-19T14:35:03.778Z,7.70
2023-01-19T14:37:39.846Z,10.02
2023-01-19T14:40:12.583Z,7.35
2023-01-19T14:42:59.798Z,8.13
2023-01-19T14:45:37.405Z,15.57
2023-01-19T14:48:25.821Z,6.18
2023-01-19T14:51:02.699Z,4.80
2023-01-19T14:53:44.814Z,3.83
2023-01-19T14:56:11.823Z,2.45
2023-01-19T14:58:44.855Z,5.00
2023-01-19T15:01:11.866Z,2.50
2023-01-19T15:03:44.815Z,2.42
2023-01-19T15:06:27.812Z,3.83
2023-01-19T15:09:01.773Z,2.70
2023-01-19T15:11:41.820Z,5.55
2023-01-19T15:14:19.863Z,2.22
2023-01-19T15:16:46.830Z,2.55
2023-01-19T15:19:21.794Z,4.57
2023-01-19T15:21:48.753Z,2.85
2023-01-19T15:24:21.975Z,3.42
2023-01-19T15:26:55.808Z,1.20
2023-01-19T15:29:24.901Z,3.13
2023-01-19T15:31:58.798Z,2.78
2023-01-19T15:34:31.779Z,4.85
2023-01-19T15:36:58.736Z,2.65
2023-01-19T15:39:25.671Z,3.15
2023-01-19T15:41:59.816Z,2.75
2023-01-19T15:44:32.807Z,4.43
2023-01-19T15:46:59.674Z,7.25
2023-01-19T15:49:32.806Z,7.50
2023-01-19T15:52:02.127Z,12.25
2023-01-19T15:54:29.108Z,8.10
2023-01-19T15:57:03.042Z,3.63
2023-01-19T15:59:30.017Z,2.85
2023-01-19T16:01:57.123Z,2.05
2023-01-19T16:04:30.763Z,1.88
2023-01-19T16:06:57.632Z,7.10
2023-01-19T16:09:30.931Z,8.45
2023-01-19T16:11:57.942Z,12.35
2023-01-19T16:14:31.823Z,6.47
2023-01-19T16:17:04.787Z,9.60
2023-01-19T16:19:31.685Z,5.65
2023-01-19T16:22:04.974Z,7.95
2023-01-19T16:24:38.815Z,4.75
2023-01-19T16:27:11.888Z,7.97
2023-01-19T16:29:44.818Z,8.90
2023-01-19T16:32:11.703Z,5.43
2023-01-19T16:34:38.791Z,6.78
2023-01-19T16:37:11.844Z,5.72
2023-01-19T16:39:38.827Z,5.53
2023-01-19T16:42:11.800Z,8.32
2023-01-19T16:44:38.814Z,19.25
2023-01-19T16:47:11.846Z,37.30
2023-01-19T16:49:38.755Z,38.42
2023-01-19T16:52:11.849Z,41.10
2023-01-19T16:54:40.814Z,42.00
2023-01-19T16:57:13.838Z,43.15
2023-01-19T16:59:40.853Z,39.15
2023-01-19T17:02:13.973Z,31.60
2023-01-19T17:04:40.896Z,32.85
2023-01-19T17:07:13.836Z,30.00
2023-01-19T17:09:40.838Z,37.50
2023-01-19T17:15:16.109Z,60.33
2023-01-19T17:17:49.940Z,53.25
2023-01-19T17:20:17.131Z,40.50
2023-01-19T17:22:50.923Z,32.50
2023-01-19T17:25:17.893Z,18.17
2023-01-19T17:27:50.871Z,12.10
2023-01-19T17:30:18.206Z,11.68
2023-01-19T17:32:46.404Z,11.02
2023-01-19T17:35:19.851Z,17.48
2023-01-19T17:37:46.753Z,19.80
2023-01-19T17:40:19.911Z,22.02
2023-01-19T17:42:46.927Z,24.23
2023-01-19T17:45:20.893Z,21.42
2023-01-19T17:47:50.829Z,18.73
2023-01-19T17:50:24.878Z,17.30
2023-01-19T17:52:51.807Z,14.73
2023-01-19T17:55:24.930Z,8.38
2023-01-19T17:57:51.845Z,7.50
2023-01-19T18:00:25.881Z,7.38
2023-01-19T18:02:52.895Z,5.43
2023-01-19T18:05:26.874Z,4.40
2023-01-19T18:07:53.812Z,5.43
2023-01-19T18:10:26.876Z,5.38
2023-01-19T18:12:53.783Z,4.15
2023-01-19T18:15:20.813Z,5.68
2023-01-19T18:17:53.889Z,5.07
2023-01-19T18:20:20.811Z,3.38
2023-01-19T18:22:53.921Z,4.80
2023-01-19T18:25:20.879Z,3.17
2023-01-19T18:27:48.105Z,3.13
2023-01-19T18:30:22.953Z,4.18
2023-01-19T18:32:49.873Z,3.47
2023-01-19T18:35:23.898Z,4.75
2023-01-19T18:37:50.813Z,4.10
2023-01-19T18:40:24.910Z,2.50
2023-01-19T18:42:51.808Z,3.45
2023-01-19T18:45:24.898Z,3.88
2023-01-19T18:47:51.817Z,3.63
2023-01-19T18:50:25.967Z,5.25
2023-01-19T18:52:52.963Z,6.07
2023-01-19T18:55:19.901Z,6.30
2023-01-19T18:57:52.868Z,8.27
2023-01-19T19:00:20.293Z,9.85
2023-01-19T19:02:53.874Z,9.95
2023-01-19T19:05:20.779Z,10.13
2023-01-19T19:07:53.883Z,13.18
2023-01-19T19:10:20.879Z,10.00
2023-01-19T19:12:53.898Z,11.13
2023-01-19T19:15:21.326Z,11.32
2023-01-19T19:17:54.918Z,11.02
2023-01-19T19:20:27.916Z,14.88
2023-01-19T19:23:01.643Z,14.13
2023-01-19T19:25:34.913Z,13.13
2023-01-19T19:28:01.838Z,19.77
2023-01-19T19:30:28.753Z,20.38
2023-01-19T19:33:02.935Z,25.15
2023-01-19T19:35:29.856Z,23.73
2023-01-19T19:38:02.924Z,26.40
2023-01-19T19:40:29.878Z,22.25
2023-01-19T19:43:02.905Z,21.77
2023-01-19T19:45:29.856Z,27.67
2023-01-19T19:48:02.901Z,23.98
2023-01-19T19:50:29.828Z,26.77
2023-01-19T19:53:02.869Z,27.05
2023-01-19T19:55:35.925Z,23.33
2023-01-19T19:58:10.192Z,23.73
2023-01-19T20:00:37.148Z,21.40
2023-01-19T20:03:10.932Z,21.25
2023-01-19T20:05:37.885Z,22.55
2023-01-19T20:08:04.967Z,22.70
2023-01-19T20:10:39.962Z,24.02
2023-01-19T20:13:09.037Z,26.77
2023-01-19T20:15:43.949Z,26.30
2023-01-19T20:18:10.963Z,26.70
2023-01-19T20:20:43.920Z,27.55
2023-01-19T20:23:10.837Z,27.33
2023-01-19T20:25:45.930Z,27.00
2023-01-19T20:28:18.957Z,28.30
2023-01-19T20:30:45.928Z,25.70
2023-01-19T20:33:12.868Z,28.73
2023-01-19T20:35:46.001Z,25.70
2023-01-19T20:38:12.984Z,23.50
2023-01-19T20:40:45.998Z,27.85
2023-01-19T20:43:12.920Z,25.55
2023-01-19T20:45:46.104Z,31.15
2023-01-19T20:48:13.630Z,33.42
2023-01-19T20:50:46.906Z,34.20
2023-01-19T20:53:20.028Z,30.58
2023-01-19T20:55:54.060Z,32.65
2023-01-19T20:58:22.483Z,35.17
2023-01-19T21:00:57.053Z,28.05
2023-01-19T21:03:24.410Z,29.55
2023-01-19T21:05:51.597Z,23.17
2023-01-19T21:08:25.056Z,48.08
2023-01-19T21:10:56.768Z,47.63
2023-01-19T21:13:31.020Z,41.72
2023-01-19T21:15:58.700Z,26.40
2023-01-19T21:18:33.325Z,27.67
2023-01-19T21:21:00.341Z,21.38
2023-01-19T21:23:27.496Z,22.13
2023-01-19T21:26:02.930Z,19.92
2023-01-19T21:28:31.169Z,22.15
2023-01-19T21:30:58.236Z,22.85
2023-01-19T21:33:31.957Z,26.40
2023-01-19T21:35:59.025Z,16.17
2023-01-19T21:38:36.437Z,11.63
2023-01-19T21:41:10.668Z,12.77
2023-01-19T21:43:44.012Z,12.82
2023-01-19T21:46:22.413Z,15.32
2023-01-19T21:48:55.980Z,15.25
2023-01-19T21:51:23.041Z,16.75
2023-01-19T21:53:57.087Z,22.00
2023-01-19T21:56:24.158Z,23.85
2023-01-19T21:58:51.133Z,99.25
2023-01-19T22:01:25.284Z,126.80
2023-01-19T22:03:56.345Z,41.28
2023-01-19T22:06:30.037Z,33.47
2023-01-19T22:08:57.315Z,26.15
2023-01-19T22:11:24.333Z,22.40
2023-01-19T22:13:58.039Z,19.15
2023-01-19T22:16:25.326Z,20.48
2023-01-19T22:19:01.040Z,18.63
2023-01-19T22:21:34.848Z,19.63
2023-01-19T22:24:09.073Z,18.02
2023-01-19T22:26:43.102Z,14.10
2023-01-19T22:29:17.105Z,13.07
2023-01-19T22:31:44.170Z,14.18
2023-01-19T22:34:11.185Z,14.25
2023-01-19T22:36:45.047Z,30.17
2023-01-19T22:39:12.604Z,32.25
2023-01-19T22:41:48.980Z,25.73
2023-01-19T22:44:25.063Z,21.10
2023-01-19T22:47:02.018Z,17.67
2023-01-19T22:49:37.030Z,18.40
2023-01-19T22:52:04.126Z,19.13
2023-01-19T22:54:38.166Z,18.27
2023-01-19T22:57:05.145Z,20.17
2023-01-19T22:59:38.981Z,16.65
2023-01-19T23:02:06.057Z,19.80
2023-01-19T23:04:40.112Z,24.73
2023-01-19T23:07:07.119Z,23.92
2023-01-19T23:09:40.981Z,23.17
2023-01-19T23:12:07.960Z,23.67
2023-01-19T23:14:40.979Z,21.98
2023-01-19T23:17:07.946Z,26.92
2023-01-19T23:19:35.093Z,26.33
2023-01-19T23:22:09.002Z,28.58
2023-01-19T23:24:36.101Z,23.08
2023-01-19T23:27:09.982Z,21.42
2023-01-19T23:29:36.955Z,18.42
2023-01-19T23:32:11.119Z,21.55
2023-01-19T23:34:40.259Z,20.90
2023-01-19T23:37:07.339Z,26.20
2023-01-19T23:39:41.374Z,30.25
2023-01-19T23:42:09.307Z,34.90
2023-01-19T23:44:44.387Z,29.02
2023-01-19T23:47:11.267Z,26.10
2023-01-19T23:49:38.214Z,29.35
2023-01-19T23:52:13.610Z,30.08
2023-01-19T23:54:41.535Z,23.17
2023-01-19T23:57:15.279Z,24.38
2023-01-19T23:59:42.503Z,23.13
